createdAt,value
2022-08-31T00:00:10.079Z,20.80
2022-08-31T00:02:56.136Z,20.90
2022-08-31T00:05:22.839Z,20.70
2022-08-31T00:07:49.393Z,20.50
2022-08-31T00:10:18.288Z,20.30
2022-08-31T00:12:48.519Z,20.20
2022-08-31T00:15:20.242Z,20.20
2022-08-31T00:17:51.462Z,20.20
2022-08-31T00:20:32.327Z,20.20
2022-08-31T00:23:03.051Z,20.20
2022-08-31T00:25:29.940Z,20.30
2022-08-31T00:27:56.451Z,20.20
2022-08-31T00:30:24.135Z,20.20
2022-08-31T00:32:50.869Z,20.10
2022-08-31T00:35:19.216Z,20.10
2022-08-31T00:37:45.762Z,20.20
2022-08-31T00:40:13.310Z,20.20
2022-08-31T00:42:40.715Z,20.20
2022-08-31T00:45:09.765Z,20.20
2022-08-31T00:47:36.723Z,20.10
2022-08-31T00:50:10.878Z,20.10
2022-08-31T00:52:42.319Z,20.10
2022-08-31T00:55:28.344Z,20.20
2022-08-31T00:57:59.064Z,20.20
2022-08-31T01:00:28.269Z,20.20
2022-08-31T01:02:57.382Z,20.20
2022-08-31T01:05:24.633Z,20.20
2022-08-31T01:07:52.642Z,20.30
2022-08-31T01:10:24.947Z,20.50
2022-08-31T01:12:55.998Z,20.50
2022-08-31T01:15:24.488Z,20.50
2022-08-31T01:17:54.662Z,20.40
2022-08-31T01:23:20.270Z,20.30
2022-08-31T01:25:49.107Z,20.20
2022-08-31T01:28:16.586Z,20.00
2022-08-31T01:30:56.141Z,20.00
2022-08-31T01:33:22.671Z,20.00
2022-08-31T01:35:49.212Z,19.90
2022-08-31T01:38:15.817Z,19.90
2022-08-31T01:40:55.135Z,20.00
2022-08-31T01:43:22.018Z,20.00
2022-08-31T01:45:49.099Z,20.00
2022-08-31T01:48:16.558Z,20.00
2022-08-31T01:50:44.041Z,20.00
2022-08-31T01:53:11.448Z,20.00
2022-08-31T01:55:38.632Z,19.90
2022-08-31T01:58:06.402Z,19.90
2022-08-31T02:00:34.152Z,19.90
2022-08-31T02:03:04.434Z,19.90
2022-08-31T02:05:31.115Z,19.90
2022-08-31T02:07:57.831Z,19.90
2022-08-31T02:10:25.095Z,19.90
2022-08-31T02:12:51.639Z,19.90
2022-08-31T02:15:19.213Z,19.80
2022-08-31T02:17:45.781Z,19.90
2022-08-31T02:20:13.917Z,19.90
2022-08-31T02:22:40.532Z,19.90
2022-08-31T02:25:09.331Z,19.80
2022-08-31T02:27:36.691Z,19.80
2022-08-31T02:30:13.550Z,19.90
2022-08-31T02:32:40.574Z,19.90
2022-08-31T02:35:08.303Z,19.90
2022-08-31T02:37:35.243Z,19.90
2022-08-31T02:40:04.043Z,19.90
2022-08-31T02:42:52.238Z,20.00
2022-08-31T02:45:21.120Z,20.10
2022-08-31T02:47:47.653Z,20.10
2022-08-31T02:50:14.246Z,20.00
2022-08-31T02:52:40.776Z,19.90
2022-08-31T02:55:07.750Z,20.10
2022-08-31T02:57:34.295Z,20.10
2022-08-31T03:00:00.828Z,19.90
2022-08-31T03:02:32.112Z,19.80
2022-08-31T03:05:07.978Z,19.90
2022-08-31T03:07:35.947Z,19.90
2022-08-31T03:10:04.931Z,19.80
2022-08-31T03:12:31.515Z,19.90
2022-08-31T03:14:58.059Z,20.10
2022-08-31T03:17:24.672Z,20.00
2022-08-31T03:19:53.763Z,20.00
2022-08-31T03:22:20.282Z,19.90
2022-08-31T03:24:47.491Z,19.70
2022-08-31T03:27:14.001Z,19.70
2022-08-31T03:29:41.726Z,19.80
2022-08-31T03:32:08.549Z,19.80
2022-08-31T03:34:35.329Z,19.90
2022-08-31T03:37:02.132Z,19.70
2022-08-31T03:39:28.656Z,19.60
2022-08-31T03:41:55.209Z,19.60
2022-08-31T03:44:23.086Z,19.60
2022-08-31T03:46:56.531Z,19.60
2022-08-31T03:49:24.137Z,19.50
2022-08-31T03:51:51.201Z,19.50
2022-08-31T03:54:17.946Z,19.50
2022-08-31T03:56:46.027Z,19.40
2022-08-31T03:59:13.148Z,19.40
2022-08-31T04:01:40.108Z,19.40
2022-08-31T04:04:07.021Z,19.30
2022-08-31T04:06:33.646Z,19.30
2022-08-31T04:09:00.161Z,19.30
2022-08-31T04:11:44.966Z,19.30
2022-08-31T04:14:15.327Z,19.30
2022-08-31T04:16:43.067Z,19.40
2022-08-31T04:19:15.112Z,19.40
2022-08-31T04:21:43.379Z,19.30
2022-08-31T04:24:11.341Z,19.30
2022-08-31T04:26:40.021Z,19.40
2022-08-31T04:29:10.953Z,19.30
2022-08-31T04:31:39.821Z,19.40
2022-08-31T04:34:07.438Z,19.50
2022-08-31T04:36:33.974Z,19.60
2022-08-31T04:39:03.399Z,19.60
2022-08-31T04:41:34.940Z,19.70
2022-08-31T04:44:03.405Z,19.80
2022-08-31T04:46:31.609Z,19.80
2022-08-31T04:48:58.460Z,19.80
2022-08-31T04:51:30.342Z,19.80
2022-08-31T04:53:57.972Z,19.90
2022-08-31T04:56:28.501Z,20.00
2022-08-31T04:59:06.500Z,20.00
2022-08-31T05:01:43.447Z,20.30
2022-08-31T05:04:13.694Z,20.30
2022-08-31T05:06:44.106Z,20.40
2022-08-31T05:09:17.182Z,20.40
2022-08-31T05:11:45.106Z,20.50
2022-08-31T05:14:12.284Z,20.70
2022-08-31T05:16:40.650Z,20.80
2022-08-31T05:19:07.789Z,20.90
2022-08-31T05:21:40.486Z,20.90
2022-08-31T05:24:17.600Z,20.90
2022-08-31T05:26:48.364Z,20.90
2022-08-31T05:29:18.982Z,20.80
2022-08-31T05:31:51.490Z,20.50
2022-08-31T05:34:20.794Z,20.50
2022-08-31T05:36:53.547Z,20.20
2022-08-31T05:39:20.802Z,20.00
2022-08-31T05:41:48.016Z,19.90
2022-08-31T05:44:16.035Z,19.80
2022-08-31T05:46:43.142Z,19.60
2022-08-31T05:49:10.882Z,19.60
2022-08-31T05:51:39.191Z,19.70
2022-08-31T05:54:07.066Z,19.80
2022-08-31T05:56:34.971Z,20.00
2022-08-31T05:59:02.018Z,20.10
2022-08-31T06:01:36.609Z,20.10
2022-08-31T06:04:04.474Z,20.20
2022-08-31T06:06:31.134Z,20.30
2022-08-31T06:08:57.916Z,20.40
2022-08-31T06:11:28.880Z,20.50
2022-08-31T06:13:59.096Z,20.40
2022-08-31T06:16:27.768Z,20.30
2022-08-31T06:18:57.563Z,20.30
2022-08-31T06:21:32.702Z,20.20
2022-08-31T06:24:00.733Z,19.90
2022-08-31T06:26:31.811Z,19.60
2022-08-31T06:29:01.898Z,19.30
2022-08-31T06:31:41.884Z,19.20
2022-08-31T06:34:08.504Z,18.90
2022-08-31T06:36:35.353Z,18.60
2022-08-31T06:39:03.211Z,18.50
2022-08-31T06:41:36.964Z,18.60
2022-08-31T06:44:11.446Z,18.70
2022-08-31T06:46:40.035Z,18.80
2022-08-31T06:49:08.785Z,19.00
2022-08-31T06:51:37.178Z,19.10
2022-08-31T06:54:27.984Z,19.00
2022-08-31T06:56:58.092Z,18.80
2022-08-31T06:59:28.435Z,18.90
2022-08-31T07:01:57.790Z,18.90
2022-08-31T07:04:25.511Z,19.10
2022-08-31T07:06:52.087Z,19.10
2022-08-31T07:09:19.162Z,19.20
2022-08-31T07:11:51.514Z,19.50
2022-08-31T07:14:22.313Z,19.60
2022-08-31T07:16:51.070Z,19.70
2022-08-31T07:19:18.273Z,19.70
2022-08-31T07:21:54.875Z,19.50
2022-08-31T07:24:27.860Z,19.40
2022-08-31T07:26:58.682Z,19.40
2022-08-31T07:29:29.496Z,19.30
2022-08-31T07:31:58.530Z,19.20
2022-08-31T07:34:31.273Z,19.10
2022-08-31T07:37:17.874Z,19.20
2022-08-31T07:40:07.823Z,19.00
2022-08-31T07:42:42.943Z,18.90
2022-08-31T07:45:21.531Z,18.80
2022-08-31T07:47:53.102Z,18.80
2022-08-31T07:50:21.029Z,18.90
2022-08-31T07:52:54.121Z,18.90
2022-08-31T07:55:23.602Z,18.90
2022-08-31T07:57:52.702Z,18.90
2022-08-31T08:00:28.808Z,19.20
2022-08-31T08:02:56.341Z,19.50
2022-08-31T08:05:29.015Z,19.50
2022-08-31T08:08:07.307Z,19.50
2022-08-31T08:10:41.810Z,19.50
2022-08-31T08:13:08.456Z,19.60
2022-08-31T08:15:36.526Z,19.60
2022-08-31T08:18:07.105Z,19.70
2022-08-31T08:20:37.398Z,19.70
2022-08-31T08:23:15.792Z,19.70
2022-08-31T08:25:46.195Z,19.70
2022-08-31T08:28:36.062Z,19.70
2022-08-31T08:31:12.438Z,19.50
2022-08-31T08:33:39.067Z,19.50
2022-08-31T08:36:08.045Z,19.70
2022-08-31T08:38:46.555Z,19.80
2022-08-31T08:41:18.633Z,20.10
2022-08-31T08:44:00.013Z,20.30
2022-08-31T08:47:14.465Z,20.50
2022-08-31T08:49:54.336Z,20.70
2022-08-31T08:52:40.681Z,20.70
2022-08-31T08:55:18.350Z,20.80
2022-08-31T08:57:48.758Z,21.00
2022-08-31T09:00:25.932Z,21.10
2022-08-31T09:03:04.300Z,21.40
2022-08-31T09:06:45.939Z,21.60
2022-08-31T09:09:48.542Z,21.80
2022-08-31T09:16:35.775Z,21.60
2022-08-31T09:19:12.375Z,21.50
2022-08-31T09:21:47.858Z,21.50
2022-08-31T09:24:20.151Z,21.50
2022-08-31T09:27:18.657Z,21.60
2022-08-31T09:29:58.420Z,21.80
2022-08-31T09:32:34.164Z,22.00
2022-08-31T09:35:42.127Z,22.20
2022-08-31T09:38:29.510Z,22.10
2022-08-31T09:40:56.545Z,22.10
2022-08-31T09:43:37.941Z,22.20
2022-08-31T09:46:29.512Z,22.20
2022-08-31T09:49:02.345Z,22.10
2022-08-31T09:51:38.783Z,22.20
2022-08-31T09:54:47.371Z,22.30
2022-08-31T09:57:14.344Z,22.30
2022-08-31T09:59:47.077Z,22.40
2022-08-31T10:02:57.316Z,22.50
2022-08-31T10:05:41.851Z,22.20
2022-08-31T10:09:00.111Z,22.10
2022-08-31T10:11:34.445Z,22.20
2022-08-31T10:14:34.301Z,22.50
2022-08-31T10:17:11.514Z,22.70
2022-08-31T10:20:06.971Z,22.80
2022-08-31T10:22:49.630Z,22.80
2022-08-31T10:26:56.325Z,22.70
2022-08-31T10:29:55.486Z,22.40
2022-08-31T10:32:41.483Z,22.20
2022-08-31T10:36:11.000Z,22.30
2022-08-31T10:38:44.025Z,22.50
2022-08-31T10:41:22.831Z,22.80
2022-08-31T10:44:23.431Z,22.90
2022-08-31T10:46:57.179Z,23.00
2022-08-31T10:49:25.458Z,22.90
2022-08-31T10:52:52.578Z,22.90
2022-08-31T10:55:51.362Z,22.90
2022-08-31T11:01:26.771Z,22.90
2022-08-31T11:04:38.370Z,22.90
2022-08-31T11:10:22.711Z,22.90
2022-08-31T11:13:05.110Z,22.90
2022-08-31T11:20:09.393Z,22.90
2022-08-31T11:24:42.915Z,23.00
2022-08-31T11:28:49.094Z,22.70
2022-08-31T11:31:32.268Z,22.60
2022-08-31T11:34:26.812Z,22.30
2022-08-31T11:37:00.373Z,22.20
2022-08-31T11:39:43.597Z,22.20
2022-08-31T11:43:48.265Z,22.20
2022-08-31T11:47:01.632Z,22.10
2022-08-31T11:49:49.251Z,22.20
2022-08-31T11:52:47.520Z,22.20
2022-08-31T11:55:24.739Z,22.00
2022-08-31T11:59:34.415Z,21.90
2022-08-31T12:03:02.247Z,21.80
2022-08-31T12:05:50.199Z,21.60
2022-08-31T12:08:18.004Z,21.40
2022-08-31T12:13:35.770Z,21.50
2022-08-31T12:16:36.099Z,21.40
2022-08-31T12:20:06.859Z,21.40
2022-08-31T12:25:13.920Z,21.20
2022-08-31T12:30:34.290Z,21.30
2022-08-31T12:33:19.051Z,21.50
2022-08-31T12:35:48.696Z,21.40
2022-08-31T12:38:22.838Z,21.40
2022-08-31T12:40:55.999Z,21.40
2022-08-31T12:43:48.464Z,21.40
2022-08-31T12:49:37.742Z,21.30
2022-08-31T12:52:58.971Z,21.10
2022-08-31T13:01:54.449Z,21.20
2022-08-31T13:04:21.538Z,21.20
2022-08-31T13:06:48.049Z,20.90
2022-08-31T13:09:30.963Z,20.80
2022-08-31T13:12:00.847Z,20.60
2022-08-31T13:14:48.924Z,20.50
2022-08-31T13:17:21.116Z,20.50
2022-08-31T13:19:57.901Z,20.40
2022-08-31T13:22:40.613Z,20.30
2022-08-31T13:25:41.177Z,20.10
2022-08-31T13:28:25.437Z,20.00
2022-08-31T13:31:07.173Z,19.90
2022-08-31T13:33:40.540Z,19.70
2022-08-31T13:36:57.637Z,19.70
2022-08-31T13:39:34.253Z,19.70
2022-08-31T13:42:20.044Z,19.70
2022-08-31T13:45:00.324Z,19.60
2022-08-31T13:47:34.149Z,19.60
2022-08-31T13:50:21.811Z,19.60
2022-08-31T13:53:26.062Z,19.70
2022-08-31T13:55:53.107Z,19.50
2022-08-31T13:58:31.898Z,19.30
2022-08-31T14:01:23.823Z,19.20
2022-08-31T14:03:58.954Z,19.20
2022-08-31T14:06:34.070Z,19.20
2022-08-31T14:09:21.492Z,19.10
2022-08-31T14:12:04.472Z,18.90
2022-08-31T14:14:42.495Z,18.90
2022-08-31T14:17:15.651Z,18.90
2022-08-31T14:19:44.697Z,18.90
2022-08-31T14:22:34.600Z,18.80
2022-08-31T14:25:01.960Z,19.00
2022-08-31T14:27:29.470Z,19.00
2022-08-31T14:29:57.611Z,19.00
2022-08-31T14:32:25.028Z,19.00
2022-08-31T14:34:52.642Z,19.00
2022-08-31T14:37:19.404Z,19.00
2022-08-31T14:39:56.994Z,18.90
2022-08-31T14:42:28.937Z,18.90
2022-08-31T14:45:17.578Z,18.80
2022-08-31T14:47:47.181Z,18.70
2022-08-31T14:50:20.718Z,18.60
2022-08-31T14:52:52.257Z,18.50
2022-08-31T14:55:20.829Z,18.70
2022-08-31T14:57:57.265Z,18.80
2022-08-31T15:00:25.909Z,18.70
2022-08-31T15:02:53.556Z,18.80
2022-08-31T15:05:23.972Z,18.70
2022-08-31T15:07:53.575Z,18.70
2022-08-31T15:10:24.508Z,18.70
2022-08-31T15:12:51.799Z,18.70
2022-08-31T15:15:19.669Z,18.40
2022-08-31T15:17:49.542Z,18.30
2022-08-31T15:20:18.906Z,18.20
2022-08-31T15:22:47.139Z,18.10
2022-08-31T15:25:14.420Z,18.10
2022-08-31T15:27:43.384Z,18.10
2022-08-31T15:30:17.966Z,18.10
2022-08-31T15:32:46.034Z,18.10
2022-08-31T15:35:22.592Z,18.20
2022-08-31T15:37:55.597Z,18.20
2022-08-31T15:40:24.409Z,18.30
2022-08-31T15:42:53.230Z,18.30
2022-08-31T15:45:21.471Z,18.30
2022-08-31T15:48:06.578Z,18.40
2022-08-31T15:50:35.084Z,18.50
2022-08-31T15:53:09.792Z,18.40
2022-08-31T15:55:39.501Z,18.30
2022-08-31T15:58:07.068Z,18.20
2022-08-31T16:00:35.406Z,18.10
2022-08-31T16:03:02.907Z,18.10
2022-08-31T16:05:34.835Z,18.10
2022-08-31T16:08:01.560Z,18.10
2022-08-31T16:10:30.052Z,18.20
2022-08-31T16:12:56.579Z,18.30
2022-08-31T16:15:24.868Z,18.40
2022-08-31T16:17:56.376Z,18.40
2022-08-31T16:20:22.901Z,18.20
2022-08-31T16:22:49.418Z,18.10
2022-08-31T16:25:16.932Z,18.10
2022-08-31T16:27:46.917Z,18.00
2022-08-31T16:30:14.050Z,18.00
2022-08-31T16:32:40.568Z,17.90
2022-08-31T16:35:08.087Z,17.90
2022-08-31T16:37:34.649Z,18.10
2022-08-31T16:40:01.368Z,18.00
2022-08-31T16:42:28.023Z,18.00
2022-08-31T16:44:58.477Z,18.00
2022-08-31T16:47:28.352Z,18.10
2022-08-31T16:49:55.080Z,18.10
2022-08-31T16:52:25.909Z,18.20
2022-08-31T16:54:56.365Z,18.20
2022-08-31T16:57:27.588Z,18.30
2022-08-31T16:59:56.615Z,18.20
2022-08-31T17:02:24.209Z,18.20
2022-08-31T17:04:53.903Z,18.20
2022-08-31T17:07:23.677Z,18.20
2022-08-31T17:09:55.268Z,18.20
2022-08-31T17:12:26.142Z,18.20
2022-08-31T17:14:53.160Z,18.30
2022-08-31T17:17:25.944Z,18.20
2022-08-31T17:19:55.013Z,18.10
2022-08-31T17:22:31.672Z,18.10
2022-08-31T17:25:03.644Z,18.10
2022-08-31T17:27:32.362Z,18.00
2022-08-31T17:30:04.608Z,18.00
2022-08-31T17:32:31.557Z,18.10
2022-08-31T17:34:58.528Z,18.00
2022-08-31T17:37:31.537Z,17.90
2022-08-31T17:39:58.537Z,17.70
2022-08-31T17:42:27.318Z,17.60
2022-08-31T17:44:55.681Z,17.70
2022-08-31T17:47:24.642Z,17.60
2022-08-31T17:49:51.852Z,17.60
2022-08-31T17:52:20.810Z,17.60
2022-08-31T17:54:49.751Z,17.60
2022-08-31T17:57:19.106Z,17.50
2022-08-31T17:59:50.429Z,17.40
2022-08-31T18:02:33.813Z,17.40
2022-08-31T18:05:09.633Z,17.40
2022-08-31T18:07:39.909Z,17.30
2022-08-31T18:10:07.147Z,17.20
2022-08-31T18:12:40.137Z,17.20
2022-08-31T18:15:12.137Z,17.20
2022-08-31T18:17:38.669Z,17.30
2022-08-31T18:20:06.113Z,17.50
2022-08-31T18:22:32.626Z,17.50
2022-08-31T18:24:59.139Z,17.50
2022-08-31T18:27:26.238Z,17.50
2022-08-31T18:29:52.804Z,17.50
2022-08-31T18:32:19.342Z,17.60
2022-08-31T18:34:46.454Z,17.50
2022-08-31T18:37:21.254Z,17.50
2022-08-31T18:40:08.267Z,17.50
2022-08-31T18:42:56.822Z,17.60
2022-08-31T18:45:28.307Z,17.70
2022-08-31T18:48:23.155Z,17.80
2022-08-31T18:50:51.194Z,17.80
2022-08-31T18:53:28.771Z,17.70
2022-08-31T18:56:04.295Z,17.70
2022-08-31T18:58:30.834Z,17.60
2022-08-31T19:00:58.186Z,17.60
2022-08-31T19:03:26.541Z,17.70
2022-08-31T19:05:53.324Z,17.60
2022-08-31T19:08:19.843Z,17.50
2022-08-31T19:10:47.531Z,17.50
2022-08-31T19:13:15.840Z,17.50
2022-08-31T19:15:42.985Z,17.50
2022-08-31T19:18:09.505Z,17.40
2022-08-31T19:20:36.025Z,17.30
2022-08-31T19:23:03.374Z,17.30
2022-08-31T19:25:31.144Z,17.40
2022-08-31T19:28:00.520Z,17.50
2022-08-31T19:30:28.523Z,17.40
2022-08-31T19:32:55.546Z,17.50
2022-08-31T19:35:22.063Z,17.30
2022-08-31T19:37:51.054Z,17.40
2022-08-31T19:40:18.491Z,17.30
2022-08-31T19:43:41.493Z,17.10
2022-08-31T19:46:20.375Z,17.10
2022-08-31T19:48:48.992Z,17.20
2022-08-31T19:51:20.960Z,17.20
2022-08-31T19:53:49.720Z,17.10
2022-08-31T19:56:23.230Z,17.00
2022-08-31T19:58:53.119Z,17.10
2022-08-31T20:01:24.373Z,17.00
2022-08-31T20:03:56.796Z,17.20
2022-08-31T20:06:26.718Z,17.20
2022-08-31T20:08:54.269Z,17.30
2022-08-31T20:11:29.324Z,17.50
2022-08-31T20:13:58.670Z,17.40
2022-08-31T20:16:34.079Z,17.40
2022-08-31T20:19:03.907Z,17.30
2022-08-31T20:21:33.972Z,17.40
2022-08-31T20:24:09.487Z,17.50
2022-08-31T20:26:47.478Z,17.50
2022-08-31T20:29:20.477Z,17.50
2022-08-31T20:31:50.574Z,17.50
2022-08-31T20:34:21.041Z,17.40
2022-08-31T20:36:50.204Z,17.40
2022-08-31T20:39:18.874Z,17.50
2022-08-31T20:41:50.740Z,17.50
2022-08-31T20:44:28.285Z,17.60
2022-08-31T20:47:17.569Z,17.80
2022-08-31T20:49:57.240Z,17.70
2022-08-31T20:52:29.883Z,17.60
2022-08-31T20:55:02.269Z,17.50
2022-08-31T20:57:34.933Z,17.30
2022-08-31T21:00:04.696Z,17.50
2022-08-31T21:02:32.514Z,17.50
2022-08-31T21:05:15.209Z,17.50
2022-08-31T21:08:02.406Z,17.40
2022-08-31T21:10:37.546Z,17.30
2022-08-31T21:13:11.699Z,17.30
2022-08-31T21:15:47.391Z,17.30
2022-08-31T21:18:16.574Z,17.30
2022-08-31T21:20:45.362Z,17.40
2022-08-31T21:23:12.714Z,17.40
2022-08-31T21:25:45.339Z,17.40
2022-08-31T21:28:16.252Z,17.50
2022-08-31T21:30:44.501Z,17.40
2022-08-31T21:33:11.055Z,17.40
2022-08-31T21:35:37.580Z,17.40
2022-08-31T21:38:04.218Z,17.40
2022-08-31T21:40:30.768Z,17.60
2022-08-31T21:42:57.653Z,17.40
2022-08-31T21:45:24.567Z,17.40
2022-08-31T21:47:51.317Z,17.30
2022-08-31T21:50:17.958Z,17.30
2022-08-31T21:52:44.461Z,17.40
2022-08-31T21:55:12.907Z,17.40
2022-08-31T21:57:40.155Z,17.50
2022-08-31T22:00:13.037Z,17.50
2022-08-31T22:02:46.009Z,17.50
2022-08-31T22:05:13.145Z,17.60
2022-08-31T22:07:39.929Z,17.60
2022-08-31T22:10:08.150Z,17.60
2022-08-31T22:12:34.669Z,17.50
2022-08-31T22:15:04.496Z,17.50
2022-08-31T22:17:55.853Z,17.60
2022-08-31T22:20:32.336Z,17.60
2022-08-31T22:22:59.365Z,17.60
2022-08-31T22:25:26.505Z,17.70
2022-08-31T22:27:53.039Z,17.60
2022-08-31T22:30:21.420Z,17.60
2022-08-31T22:32:47.983Z,17.60
2022-08-31T22:35:16.021Z,17.50
2022-08-31T22:37:43.522Z,17.50
2022-08-31T22:40:19.093Z,17.50
2022-08-31T22:42:53.920Z,17.50
2022-08-31T22:45:23.009Z,17.60
2022-08-31T22:47:50.393Z,17.60
2022-08-31T22:50:17.077Z,17.60
2022-08-31T22:52:43.609Z,17.50
2022-08-31T22:55:10.132Z,17.60
2022-08-31T22:57:37.580Z,17.70
2022-08-31T23:00:11.513Z,17.60
2022-08-31T23:02:44.072Z,17.60
2022-08-31T23:05:15.603Z,17.60
2022-08-31T23:07:42.872Z,17.60
2022-08-31T23:10:17.134Z,17.50
2022-08-31T23:12:46.459Z,17.50
2022-08-31T23:15:14.622Z,17.40
2022-08-31T23:17:45.318Z,17.50
2022-08-31T23:20:18.755Z,17.50
2022-08-31T23:22:47.513Z,17.50
2022-08-31T23:25:17.352Z,17.40
2022-08-31T23:27:45.429Z,17.30
2022-08-31T23:30:18.008Z,17.40
2022-08-31T23:32:47.090Z,17.50
2022-08-31T23:35:17.676Z,17.50
2022-08-31T23:37:44.858Z,17.50
2022-08-31T23:40:14.635Z,17.40
2022-08-31T23:42:41.306Z,17.30
2022-08-31T23:45:09.552Z,17.20
2022-08-31T23:47:38.485Z,17.20
2022-08-31T23:50:07.612Z,17.10
2022-08-31T23:52:34.671Z,17.10
2022-08-31T23:55:02.492Z,17.20
2022-08-31T23:57:32.209Z,17.20
